»·PEaware :: C-GGMT L88-KSBP

C-GGMT :: L88-KSBP

FLIGHT INFORMATION

Flight Status: Arrived
Operator: Privately registered:
Canada
More flights under this callsign
Pilot: Mat R. (22649)
Aircraft: CESSNA 172 SKYHAWK
(C172)
More flights by this aircraft type
Origin: L88 New Cuyama
United States
Destination: KSBP San Luis Co Regl
United States
More flights between these airports :: More routes between these airports
Route:
File this flight plan on PilotEdge
Remarks: CAT-2
Altitude:
(Current/Filed)
5,500ft
Speed:
(Current/Filed)
105kts
Departed: 23-Dec-18 03:57 PM
Arrived: 23-Dec-18 05:11 PM
Distance/Time
Traveled:
50nm/1:13
Distance/Time
To Go:
Arrived

Flight Plot

Page will automatically refresh every two minutes.


Map Options




Map Legend


Flown Route
Filed Route
Departure Airport
Arrival Airport
Navaid (VOR, NDB)
Fix

Horizontal Profiles

Position Reports

Time Latitude Longitude Heading Altitude Ground
Speed
23-Dec-18 15:49 34.942626 -119.689994 291 2206ft 0kts
23-Dec-18 15:50 34.942629 -119.690001 291 2206ft 0kts
23-Dec-18 15:51 34.942513 -119.691358 210 2206ft 5kts
23-Dec-18 15:52 34.941672 -119.689808 116 2206ft 8kts
23-Dec-18 15:53 34.939742 -119.685084 116 2206ft 21kts
23-Dec-18 15:54 34.937997 -119.680795 116 2206ft 14kts
23-Dec-18 15:55 34.938015 -119.680862 295 2206ft 35kts
23-Dec-18 15:56 34.947796 -119.703205 295 2809ft 88kts
23-Dec-18 15:57 34.942552 -119.689780 289 2206ft 0kts
23-Dec-18 15:58 34.942554 -119.689788 289 2206ft 0kts
23-Dec-18 15:59 34.942851 -119.690729 290 2206ft 0kts
23-Dec-18 16:00 34.942378 -119.690564 199 2206ft 0kts
23-Dec-18 16:01 34.942376 -119.690565 199 2206ft 0kts
23-Dec-18 16:02 34.942375 -119.690566 199 2206ft 0kts
23-Dec-18 16:03 34.942373 -119.690566 199 2206ft 0kts
23-Dec-18 16:04 34.942371 -119.690567 199 2206ft 0kts
23-Dec-18 16:05 34.942369 -119.690568 199 2206ft 0kts
23-Dec-18 16:06 34.942367 -119.690569 199 2206ft 0kts
23-Dec-18 16:07 34.942365 -119.690570 199 2206ft 0kts
23-Dec-18 16:08 34.942363 -119.690570 199 2206ft 0kts
23-Dec-18 16:09 34.942361 -119.690571 199 2206ft 0kts
23-Dec-18 16:10 34.942359 -119.690572 199 2206ft 0kts
23-Dec-18 16:11 34.942358 -119.690573 199 2206ft 0kts
23-Dec-18 16:12 34.942356 -119.690574 199 2206ft 0kts
23-Dec-18 16:13 34.942354 -119.690574 199 2206ft 0kts
23-Dec-18 16:14 34.942352 -119.690575 199 2206ft 0kts
23-Dec-18 16:15 34.942350 -119.690576 199 2206ft 0kts
23-Dec-18 16:16 34.942348 -119.690577 199 2206ft 0kts
23-Dec-18 16:17 34.942346 -119.690578 199 2206ft 0kts
23-Dec-18 16:18 34.942343 -119.690579 199 2206ft 0kts
23-Dec-18 16:19 34.942339 -119.690581 199 2206ft 0kts
23-Dec-18 16:20 34.942336 -119.690582 199 2206ft 0kts
23-Dec-18 16:21 34.942333 -119.690583 199 2206ft 0kts
23-Dec-18 16:22 34.942329 -119.690585 199 2206ft 0kts
23-Dec-18 16:23 34.942326 -119.690586 199 2206ft 0kts
23-Dec-18 16:24 34.942323 -119.690588 199 2206ft 0kts
23-Dec-18 16:25 34.942320 -119.690589 199 2206ft 0kts
23-Dec-18 16:26 34.942316 -119.690591 199 2206ft 0kts
23-Dec-18 16:27 34.942313 -119.690592 199 2206ft 0kts
23-Dec-18 16:28 34.942310 -119.690593 199 2206ft 0kts
23-Dec-18 16:29 34.942306 -119.690595 199 2206ft 0kts
23-Dec-18 16:30 34.942301 -119.690597 199 2206ft 0kts
23-Dec-18 16:31 34.942297 -119.690599 199 2206ft 0kts
23-Dec-18 16:32 34.942291 -119.690601 199 2206ft 0kts
23-Dec-18 16:33 34.942286 -119.690603 199 2206ft 0kts
23-Dec-18 16:34 34.942280 -119.690606 199 2206ft 0kts
23-Dec-18 16:35 34.942275 -119.690608 199 2206ft 0kts
23-Dec-18 16:36 34.940594 -119.687180 116 2206ft 23kts
23-Dec-18 16:37 34.938052 -119.681068 118 2206ft 9kts
23-Dec-18 16:38 34.941081 -119.688524 295 2296ft 81kts
23-Dec-18 16:39 34.950528 -119.711695 293 3204ft 83kts
23-Dec-18 16:40 34.962108 -119.740330 292 3937ft 95kts
23-Dec-18 16:41 34.972054 -119.771629 296 4975ft 94kts
23-Dec-18 16:42 34.985474 -119.799483 307 5835ft 101kts
23-Dec-18 16:43 35.006506 -119.829745 314 5270ft 119kts
23-Dec-18 16:44 35.022330 -119.869178 298 4522ft 115kts
23-Dec-18 16:45 35.038032 -119.902261 310 4612ft 113kts
23-Dec-18 16:46 35.055928 -119.935157 293 4625ft 120kts
23-Dec-18 16:47 35.069955 -119.969506 298 4512ft 96kts
23-Dec-18 16:48 35.081530 -120.000945 296 4514ft 100kts
23-Dec-18 16:49 35.089662 -120.033328 292 4509ft 103kts
23-Dec-18 16:50 35.099513 -120.065877 297 4529ft 105kts
23-Dec-18 16:51 35.110093 -120.099241 294 4578ft 108kts
23-Dec-18 16:52 35.121177 -120.133149 277 4532ft 106kts
23-Dec-18 16:54 35.123520 -120.159308 300 4485ft 98kts
23-Dec-18 16:55 35.138796 -120.186832 311 4499ft 103kts
23-Dec-18 16:56 35.145511 -120.219626 285 4513ft 101kts
23-Dec-18 16:57 35.157878 -120.247181 324 4424ft 89kts
23-Dec-18 16:58 35.157340 -120.279878 273 4440ft 103kts
23-Dec-18 16:59 35.150242 -120.313444 282 4415ft 104kts
23-Dec-18 17:00 35.158072 -120.342061 326 4616ft 91kts
23-Dec-18 17:01 35.175708 -120.366877 313 4615ft 102kts
23-Dec-18 17:02 35.181095 -120.404029 262 4434ft 117kts
23-Dec-18 17:03 35.170628 -120.442292 255 4161ft 133kts
23-Dec-18 17:04 35.159830 -120.473784 262 3386ft 113kts
23-Dec-18 17:05 35.165103 -120.508987 295 3313ft 107kts
23-Dec-18 17:06 35.179827 -120.540770 307 2567ft 108kts
23-Dec-18 17:07 35.197366 -120.570846 303 1878ft 109kts
23-Dec-18 17:08 35.213722 -120.599968 308 1118ft 84kts
23-Dec-18 17:09 35.223170 -120.616527 310 757ft 55kts
23-Dec-18 17:10 35.232152 -120.632097 310 267ft 55kts
23-Dec-18 17:10 35.236701 -120.639936 309 215ft 12kts
23-Dec-18 17:12 35.237515 -120.639993 23 215ft 0kts
23-Dec-18 17:12 35.238159 -120.639918 3 215ft 10kts
23-Dec-18 17:14 35.238883 -120.639001 169 215ft 1kts
23-Dec-18 17:14 35.238853 -120.638995 170 215ft 0kts
23-Dec-18 17:15 35.238851 -120.638994 170 215ft 0kts
23-Dec-18 17:17 35.238849 -120.638994 170 215ft 0kts
23-Dec-18 17:18 35.238847 -120.638994 170 215ft 0kts
23-Dec-18 17:18 35.238845 -120.638993 170 215ft 0kts
23-Dec-18 17:20 35.238843 -120.638993 170 215ft 0kts
23-Dec-18 17:20 35.238841 -120.638992 170 215ft 0kts
23-Dec-18 17:21 35.238839 -120.638992 170 215ft 0kts
23-Dec-18 17:22 35.238837 -120.638992 170 215ft 0kts
23-Dec-18 17:23 35.238836 -120.638991 170 215ft 0kts
23-Dec-18 17:24 35.238833 -120.638991 170 215ft 0kts

Navigation Log

Ident Type
Flight plan parsing failed, navigation log unavailable